createdAt,value
2019-05-09T00:00:53.975Z,8.41
2019-05-09T00:01:54.276Z,8.39
2019-05-09T00:02:54.127Z,8.41
2019-05-09T00:03:54.435Z,8.35
2019-05-09T00:04:53.928Z,8.50
2019-05-09T00:05:54.283Z,8.37
2019-05-09T00:06:54.464Z,8.37
2019-05-09T00:07:53.940Z,8.32
2019-05-09T00:08:53.888Z,8.39
2019-05-09T00:09:53.876Z,8.46
2019-05-09T00:10:53.860Z,8.37
2019-05-09T00:11:53.851Z,8.41
2019-05-09T00:12:54.110Z,8.24
2019-05-09T00:13:54.006Z,8.24
2019-05-09T00:14:54.094Z,8.28
2019-05-09T00:15:54.265Z,8.24
2019-05-09T00:16:53.797Z,8.21
2019-05-09T00:17:53.789Z,8.21
2019-05-09T00:18:54.272Z,8.26
2019-05-09T00:19:53.976Z,8.20
2019-05-09T00:20:54.047Z,8.19
2019-05-09T00:21:54.137Z,8.12
2019-05-09T00:22:53.977Z,8.21
2019-05-09T00:23:54.205Z,8.13
2019-05-09T00:24:54.039Z,8.14
2019-05-09T00:25:53.936Z,8.13
2019-05-09T00:26:53.694Z,8.16
2019-05-09T00:27:53.757Z,8.13
2019-05-09T00:28:53.667Z,8.20
2019-05-09T00:29:53.654Z,8.14
2019-05-09T00:30:54.153Z,8.17
2019-05-09T00:31:54.135Z,8.13
2019-05-09T00:32:53.627Z,8.12
2019-05-09T00:33:53.674Z,8.19
2019-05-09T00:34:53.607Z,8.13
2019-05-09T00:35:53.589Z,8.31
2019-05-09T00:36:54.050Z,8.28
2019-05-09T00:37:53.752Z,8.23
2019-05-09T00:38:53.784Z,8.23
2019-05-09T00:39:53.580Z,8.24
2019-05-09T00:40:58.600Z,8.31
2019-05-09T00:41:54.522Z,8.28
2019-05-09T00:42:53.514Z,8.32
2019-05-09T00:43:54.309Z,8.23
2019-05-09T00:44:53.491Z,8.26
2019-05-09T00:45:54.197Z,8.31
2019-05-09T00:46:53.632Z,8.26
2019-05-09T00:47:53.986Z,8.26
2019-05-09T00:48:53.447Z,8.21
2019-05-09T00:49:54.183Z,8.26
2019-05-09T00:50:54.443Z,8.21
2019-05-09T00:51:54.042Z,8.12
2019-05-09T00:52:53.818Z,8.19
2019-05-09T00:53:53.782Z,8.19
2019-05-09T00:54:53.382Z,8.14
2019-05-09T00:55:53.411Z,8.29
2019-05-09T00:56:53.939Z,8.31
2019-05-09T00:57:53.578Z,8.29
2019-05-09T00:58:53.722Z,8.29
2019-05-09T00:59:53.329Z,8.39
2019-05-09T01:00:53.418Z,8.38
2019-05-09T01:01:54.339Z,8.28
2019-05-09T01:02:54.219Z,8.26
2019-05-09T01:03:53.805Z,8.32
2019-05-09T01:04:53.292Z,8.31
2019-05-09T01:05:54.285Z,8.35
2019-05-09T01:06:54.013Z,8.35
2019-05-09T01:07:53.893Z,8.29
2019-05-09T01:08:53.793Z,8.31
2019-05-09T01:09:54.338Z,8.37
2019-05-09T01:11:08.239Z,8.31
2019-05-09T01:11:54.199Z,8.38
2019-05-09T01:12:54.197Z,8.32
2019-05-09T01:13:54.396Z,8.44
2019-05-09T01:14:53.884Z,8.39
2019-05-09T01:15:53.363Z,8.52
2019-05-09T01:16:53.631Z,8.42
2019-05-09T01:17:53.745Z,8.50
2019-05-09T01:18:54.364Z,8.47
2019-05-09T01:19:53.888Z,8.49
2019-05-09T01:20:53.213Z,8.52
2019-05-09T01:21:54.177Z,8.57
2019-05-09T01:22:54.050Z,8.57
2019-05-09T01:23:53.945Z,8.59
2019-05-09T01:24:53.434Z,8.62
2019-05-09T01:25:53.211Z,8.65
2019-05-09T01:26:54.246Z,8.67
2019-05-09T01:27:53.833Z,8.74
2019-05-09T01:28:53.807Z,8.63
2019-05-09T01:29:53.560Z,8.70
2019-05-09T01:30:53.264Z,8.70
2019-05-09T01:31:54.051Z,8.72
2019-05-09T01:32:53.958Z,8.70
2019-05-09T01:33:53.475Z,8.63
2019-05-09T01:34:53.110Z,8.75
2019-05-09T01:35:54.072Z,8.68
2019-05-09T01:36:54.017Z,8.77
2019-05-09T01:37:53.871Z,8.78
2019-05-09T01:38:53.957Z,8.77
2019-05-09T01:39:53.416Z,8.77
2019-05-09T01:40:53.368Z,8.80
2019-05-09T01:41:53.201Z,8.90
2019-05-09T01:42:53.799Z,8.88
2019-05-09T01:43:53.659Z,8.88
2019-05-09T01:44:53.363Z,8.90
2019-05-09T01:45:54.063Z,8.83
2019-05-09T01:46:54.034Z,8.88
2019-05-09T01:47:53.777Z,8.86
2019-05-09T01:48:53.904Z,8.92
2019-05-09T01:49:53.844Z,8.86
2019-05-09T01:50:53.782Z,8.89
2019-05-09T01:51:53.708Z,8.93
2019-05-09T01:52:53.358Z,8.93
2019-05-09T01:53:53.234Z,8.93
2019-05-09T01:54:54.132Z,8.92
2019-05-09T01:55:53.924Z,8.89
2019-05-09T01:56:53.754Z,8.89
2019-05-09T01:57:53.800Z,8.88
2019-05-09T01:58:53.824Z,8.92
2019-05-09T01:59:53.243Z,8.90
2019-05-09T02:00:54.042Z,8.89
2019-05-09T02:01:54.087Z,8.90
2019-05-09T02:02:54.046Z,8.93
2019-05-09T02:03:53.647Z,8.96
2019-05-09T02:04:53.312Z,8.93
2019-05-09T02:05:53.265Z,8.86
2019-05-09T02:06:53.744Z,8.92
2019-05-09T02:07:54.220Z,8.92
2019-05-09T02:08:54.550Z,8.90
2019-05-09T02:09:54.013Z,8.92
2019-05-09T02:10:54.221Z,8.85
2019-05-09T02:11:54.500Z,8.88
2019-05-09T02:12:53.797Z,8.88
2019-05-09T02:13:53.555Z,8.86
2019-05-09T02:14:54.234Z,8.86
2019-05-09T02:15:53.907Z,8.89
2019-05-09T02:16:53.707Z,8.92
2019-05-09T02:18:01.125Z,8.95
2019-05-09T02:18:53.550Z,8.90
2019-05-09T02:19:53.268Z,8.95
2019-05-09T02:20:53.283Z,8.95
2019-05-09T02:21:53.116Z,8.90
2019-05-09T02:22:54.272Z,8.90
2019-05-09T02:23:53.715Z,8.88
2019-05-09T02:24:53.491Z,8.90
2019-05-09T02:25:53.243Z,8.89
2019-05-09T02:26:53.338Z,8.93
2019-05-09T02:27:52.371Z,8.93
2019-05-09T02:28:53.796Z,8.88
2019-05-09T02:29:54.336Z,8.90
2019-05-09T02:30:54.877Z,8.90
2019-05-09T02:31:54.660Z,8.92
2019-05-09T02:32:54.651Z,8.89
2019-05-09T02:33:54.133Z,8.88
2019-05-09T02:34:54.731Z,8.77
2019-05-09T02:35:57.326Z,8.89
2019-05-09T02:36:53.324Z,8.80
2019-05-09T02:37:52.261Z,8.89
2019-05-09T02:38:52.251Z,8.93
2019-05-09T02:39:52.240Z,8.83
2019-05-09T02:40:52.229Z,8.90
2019-05-09T02:42:04.803Z,8.93
2019-05-09T02:42:53.264Z,8.90
2019-05-09T02:43:52.204Z,8.88
2019-05-09T02:44:52.188Z,8.93
2019-05-09T02:45:52.933Z,8.88
2019-05-09T02:46:52.169Z,8.86
2019-05-09T02:47:52.173Z,8.83
2019-05-09T02:48:52.347Z,8.80
2019-05-09T02:49:52.132Z,8.92
2019-05-09T02:50:52.141Z,8.81
2019-05-09T02:51:52.109Z,8.85
2019-05-09T02:52:52.099Z,8.83
2019-05-09T02:53:52.088Z,8.85
2019-05-09T02:54:52.124Z,8.72
2019-05-09T02:55:52.070Z,8.75
2019-05-09T02:56:52.059Z,8.70
2019-05-09T02:57:52.044Z,8.72
2019-05-09T02:58:52.033Z,8.70
2019-05-09T02:59:52.030Z,8.67
2019-05-09T03:00:52.055Z,8.70
2019-05-09T03:01:52.001Z,8.68
2019-05-09T03:02:52.007Z,8.68
2019-05-09T03:03:51.978Z,8.71
2019-05-09T03:04:51.968Z,8.68
2019-05-09T03:05:51.956Z,8.63
2019-05-09T03:06:52.139Z,8.59
2019-05-09T03:07:51.940Z,8.59
2019-05-09T03:08:51.941Z,8.57
2019-05-09T03:09:51.914Z,8.53
2019-05-09T03:10:51.908Z,8.53
2019-05-09T03:11:51.894Z,8.57
2019-05-09T03:12:51.931Z,8.50
2019-05-09T03:13:51.869Z,8.55
2019-05-09T03:14:51.872Z,8.52
2019-05-09T03:15:51.848Z,8.57
2019-05-09T03:16:51.841Z,8.50
2019-05-09T03:17:51.834Z,8.59
2019-05-09T03:18:51.848Z,8.53
2019-05-09T03:19:51.804Z,8.53
2019-05-09T03:20:51.809Z,8.53
2019-05-09T03:21:51.788Z,8.56
2019-05-09T03:22:51.773Z,8.70
2019-05-09T03:23:51.760Z,8.63
2019-05-09T03:24:51.792Z,8.55
2019-05-09T03:25:51.745Z,8.60
2019-05-09T03:26:51.744Z,8.63
2019-05-09T03:27:51.719Z,8.55
2019-05-09T03:28:51.704Z,8.57
2019-05-09T03:29:51.696Z,8.60
2019-05-09T03:30:51.743Z,8.55
2019-05-09T03:31:51.675Z,8.63
2019-05-09T03:32:51.677Z,8.59
2019-05-09T03:33:51.652Z,8.62
2019-05-09T03:34:51.639Z,8.50
2019-05-09T03:35:51.628Z,8.50
2019-05-09T03:36:51.669Z,8.52
2019-05-09T03:37:51.615Z,8.50
2019-05-09T03:38:51.619Z,8.52
2019-05-09T03:39:51.584Z,8.47
2019-05-09T03:40:51.576Z,8.39
2019-05-09T03:41:51.564Z,8.39
2019-05-09T03:42:51.596Z,8.37
2019-05-09T03:43:51.541Z,8.42
2019-05-09T03:44:51.552Z,8.35
2019-05-09T03:45:51.522Z,8.50
2019-05-09T03:46:51.512Z,8.49
2019-05-09T03:47:51.502Z,8.46
2019-05-09T03:48:51.518Z,8.39
2019-05-09T03:49:51.479Z,8.39
2019-05-09T03:50:51.477Z,8.29
2019-05-09T03:51:51.454Z,8.32
2019-05-09T03:52:51.443Z,8.29
2019-05-09T03:53:51.440Z,8.31
2019-05-09T03:54:51.470Z,8.37
2019-05-09T03:55:51.410Z,8.29
2019-05-09T03:56:51.420Z,8.21
2019-05-09T03:57:51.389Z,8.34
2019-05-09T03:58:51.379Z,8.28
2019-05-09T03:59:51.368Z,8.29
2019-05-09T04:00:51.405Z,8.26
2019-05-09T04:01:51.347Z,8.20
2019-05-09T04:02:51.354Z,8.28
2019-05-09T04:03:51.323Z,8.28
2019-05-09T04:04:51.317Z,8.23
2019-05-09T04:05:59.050Z,8.21
2019-05-09T04:06:52.347Z,8.35
2019-05-09T04:07:51.283Z,8.31
2019-05-09T04:08:53.947Z,8.28
2019-05-09T04:09:51.268Z,8.34
2019-05-09T04:10:51.278Z,8.24
2019-05-09T04:11:51.256Z,8.34
2019-05-09T04:12:55.812Z,8.26
2019-05-09T04:13:52.233Z,8.17
2019-05-09T04:14:51.208Z,8.21
2019-05-09T04:15:51.199Z,8.28
2019-05-09T04:16:51.188Z,8.23
2019-05-09T04:17:51.197Z,8.23
2019-05-09T04:18:51.248Z,8.24
2019-05-09T04:19:51.186Z,8.28
2019-05-09T04:20:51.140Z,8.21
2019-05-09T04:21:51.140Z,8.29
2019-05-09T04:22:51.120Z,8.32
2019-05-09T04:23:51.108Z,8.31
2019-05-09T04:24:51.145Z,8.35
2019-05-09T04:25:51.087Z,8.44
2019-05-09T04:26:51.079Z,8.29
2019-05-09T04:27:51.065Z,8.46
2019-05-09T04:28:51.052Z,8.50
2019-05-09T04:29:51.048Z,8.52
2019-05-09T04:30:51.070Z,8.53
2019-05-09T04:31:51.039Z,8.50
2019-05-09T04:32:51.043Z,8.50
2019-05-09T04:33:50.997Z,8.57
2019-05-09T04:34:51.005Z,8.57
2019-05-09T04:35:50.977Z,8.67
2019-05-09T04:36:51.176Z,8.65
2019-05-09T04:37:50.975Z,8.67
2019-05-09T04:38:50.944Z,8.72
2019-05-09T04:39:53.979Z,8.74
2019-05-09T04:40:51.942Z,8.68
2019-05-09T04:41:55.130Z,8.71
2019-05-09T04:42:51.943Z,8.70
2019-05-09T04:43:50.943Z,8.65
2019-05-09T04:44:57.642Z,8.75
2019-05-09T04:45:53.483Z,8.80
2019-05-09T04:46:54.034Z,8.86
2019-05-09T04:47:51.859Z,8.86
2019-05-09T04:48:54.073Z,8.89
2019-05-09T04:49:51.832Z,8.89
2019-05-09T04:50:50.812Z,8.89
2019-05-09T04:51:50.806Z,8.90
2019-05-09T04:52:50.792Z,8.83
2019-05-09T04:53:50.785Z,8.86
2019-05-09T04:54:50.830Z,8.88
2019-05-09T04:55:50.762Z,8.86
2019-05-09T04:56:53.665Z,8.85
2019-05-09T04:57:50.748Z,8.81
2019-05-09T04:58:50.745Z,8.89
2019-05-09T04:59:50.724Z,8.90
2019-05-09T05:00:50.795Z,8.86
2019-05-09T05:01:50.765Z,8.88
2019-05-09T05:02:50.710Z,8.90
2019-05-09T05:03:50.676Z,8.90
2019-05-09T05:04:50.661Z,8.88
2019-05-09T05:05:50.662Z,8.96
2019-05-09T05:06:50.695Z,8.95
2019-05-09T05:07:50.627Z,8.95
2019-05-09T05:08:50.618Z,8.93
2019-05-09T05:09:50.614Z,9.04
2019-05-09T05:10:50.599Z,8.98
2019-05-09T05:11:50.582Z,9.03
2019-05-09T05:12:50.605Z,8.93
2019-05-09T05:13:50.561Z,8.95
2019-05-09T05:14:50.552Z,9.03
2019-05-09T05:15:50.546Z,8.99
2019-05-09T05:16:53.117Z,8.99
2019-05-09T05:17:50.524Z,8.95
2019-05-09T05:18:50.576Z,8.96
2019-05-09T05:19:50.505Z,8.95
2019-05-09T05:20:50.533Z,8.96
2019-05-09T05:21:50.494Z,9.06
2019-05-09T05:22:50.471Z,9.04
2019-05-09T05:23:50.499Z,9.08
2019-05-09T05:24:50.480Z,9.16
2019-05-09T05:25:50.435Z,9.12
2019-05-09T05:26:50.436Z,9.29
2019-05-09T05:27:50.412Z,9.33
2019-05-09T05:28:50.423Z,9.42
2019-05-09T05:29:50.403Z,9.42
2019-05-09T05:30:50.435Z,9.55
2019-05-09T05:31:50.393Z,9.50
2019-05-09T05:32:50.390Z,9.60
2019-05-09T05:33:53.733Z,9.48
2019-05-09T05:34:50.336Z,9.51
2019-05-09T05:35:50.324Z,9.55
2019-05-09T05:36:50.368Z,9.57
2019-05-09T05:37:50.317Z,9.66
2019-05-09T05:38:50.291Z,9.54
2019-05-09T05:39:50.327Z,9.63
2019-05-09T05:40:50.276Z,9.65
2019-05-09T05:41:50.261Z,9.77
2019-05-09T05:42:50.289Z,9.90
2019-05-09T05:43:50.292Z,10.02
2019-05-09T05:44:50.226Z,10.02
2019-05-09T05:45:50.223Z,10.09
2019-05-09T05:46:50.934Z,10.26
2019-05-09T05:47:50.188Z,10.34
2019-05-09T05:48:50.246Z,10.34
2019-05-09T05:49:50.216Z,10.48
2019-05-09T05:50:50.178Z,10.46
2019-05-09T05:51:50.169Z,10.61
2019-05-09T05:52:50.153Z,10.52
2019-05-09T05:53:50.124Z,10.65
2019-05-09T05:54:50.174Z,10.67
2019-05-09T05:55:52.669Z,10.62
2019-05-09T05:56:50.092Z,10.67
2019-05-09T05:57:50.093Z,10.80
2019-05-09T05:58:50.138Z,10.80
2019-05-09T05:59:50.072Z,10.90
2019-05-09T06:00:50.099Z,10.90
2019-05-09T06:01:50.060Z,10.82
2019-05-09T06:02:50.063Z,10.83
2019-05-09T06:03:50.031Z,10.80
2019-05-09T06:04:50.032Z,10.83
2019-05-09T06:05:51.823Z,10.86
2019-05-09T06:06:50.055Z,10.95
2019-05-09T06:07:49.988Z,10.87
2019-05-09T06:08:49.993Z,10.85
2019-05-09T06:09:49.982Z,11.03
2019-05-09T06:10:49.971Z,10.98
2019-05-09T06:11:49.940Z,11.11
2019-05-09T06:12:49.968Z,11.22
2019-05-09T06:13:56.584Z,11.31
2019-05-09T06:14:50.892Z,11.37
2019-05-09T06:15:49.887Z,11.48
2019-05-09T06:16:49.875Z,11.52
2019-05-09T06:17:49.861Z,11.58
2019-05-09T06:18:49.894Z,11.58
2019-05-09T06:19:49.863Z,11.66
2019-05-09T06:20:49.831Z,11.66
2019-05-09T06:21:52.334Z,11.70
2019-05-09T06:22:49.889Z,11.66
2019-05-09T06:23:49.803Z,11.66
2019-05-09T06:24:49.870Z,11.76
2019-05-09T06:25:49.775Z,11.64
2019-05-09T06:26:49.769Z,11.80
2019-05-09T06:27:49.874Z,11.77
2019-05-09T06:28:49.781Z,11.73
2019-05-09T06:29:49.736Z,11.77
2019-05-09T06:30:49.782Z,11.85
2019-05-09T06:31:49.713Z,11.79
2019-05-09T06:32:49.705Z,11.80
2019-05-09T06:33:53.552Z,11.84
2019-05-09T06:34:49.744Z,12.00
2019-05-09T06:35:49.662Z,12.08
2019-05-09T06:36:49.681Z,12.14
2019-05-09T06:37:49.648Z,12.08
2019-05-09T06:38:49.641Z,12.03
2019-05-09T06:39:49.627Z,12.17
2019-05-09T06:40:49.891Z,12.14
2019-05-09T06:41:49.664Z,12.18
2019-05-09T06:42:49.726Z,12.22
2019-05-09T06:43:49.814Z,12.10
2019-05-09T06:44:49.569Z,12.14
2019-05-09T06:45:49.616Z,12.17
2019-05-09T06:46:49.573Z,12.13
2019-05-09T06:47:49.541Z,12.30
2019-05-09T06:48:49.583Z,12.36
2019-05-09T06:49:50.177Z,12.48
2019-05-09T06:50:49.501Z,12.33
2019-05-09T06:51:49.548Z,12.26
2019-05-09T06:52:49.480Z,12.38
2019-05-09T06:53:49.467Z,12.41
2019-05-09T06:54:49.523Z,12.40
2019-05-09T06:55:49.449Z,12.33
2019-05-09T06:56:49.480Z,12.38
2019-05-09T06:57:49.439Z,12.38
2019-05-09T06:58:49.429Z,12.36
2019-05-09T06:59:49.417Z,12.48
2019-05-09T07:00:49.431Z,12.48
2019-05-09T07:01:49.395Z,12.47
2019-05-09T07:02:49.377Z,12.61
2019-05-09T07:03:49.370Z,12.41
2019-05-09T07:04:49.370Z,12.41
2019-05-09T07:05:49.395Z,12.30
2019-05-09T07:06:49.384Z,12.25
2019-05-09T07:07:49.321Z,12.38
2019-05-09T07:08:49.347Z,12.43
2019-05-09T07:09:49.294Z,12.48
2019-05-09T07:10:49.291Z,12.48
2019-05-09T07:11:49.270Z,12.51
2019-05-09T07:12:49.299Z,12.47
2019-05-09T07:13:49.254Z,12.47
2019-05-09T07:14:49.262Z,12.38
2019-05-09T07:15:49.227Z,12.46
2019-05-09T07:16:49.218Z,12.40
2019-05-09T07:17:49.228Z,12.43
2019-05-09T07:18:49.238Z,12.41
2019-05-09T07:19:49.247Z,12.38
2019-05-09T07:20:49.186Z,12.40
2019-05-09T07:21:49.167Z,12.38
2019-05-09T07:22:49.152Z,12.26
2019-05-09T07:23:49.139Z,12.26
2019-05-09T07:24:49.192Z,12.18
2019-05-09T07:25:49.126Z,12.30
2019-05-09T07:26:49.107Z,12.26
2019-05-09T07:27:49.105Z,12.41
2019-05-09T07:28:49.091Z,12.32
2019-05-09T07:29:49.076Z,12.50
2019-05-09T07:30:49.112Z,12.50
2019-05-09T07:31:49.063Z,12.38
2019-05-09T07:32:49.049Z,12.53
2019-05-09T07:33:49.048Z,12.43
2019-05-09T07:34:49.033Z,12.44
2019-05-09T07:35:49.009Z,12.44
2019-05-09T07:36:49.052Z,12.47
2019-05-09T07:37:49.029Z,12.43
2019-05-09T07:38:48.971Z,12.50
2019-05-09T07:39:48.972Z,12.53
2019-05-09T07:40:48.953Z,12.47
2019-05-09T07:41:48.941Z,12.65
2019-05-09T07:42:48.996Z,12.54
2019-05-09T07:43:48.928Z,12.50
2019-05-09T07:44:52.187Z,12.66
2019-05-09T07:45:48.938Z,12.66
2019-05-09T07:46:48.881Z,12.71
2019-05-09T07:47:48.871Z,12.69
2019-05-09T07:48:48.896Z,12.68
2019-05-09T07:49:48.849Z,12.69
2019-05-09T07:50:48.850Z,12.77
2019-05-09T07:51:48.870Z,12.69
2019-05-09T07:52:48.843Z,12.72
2019-05-09T07:53:48.812Z,12.86
2019-05-09T07:54:48.854Z,12.99
2019-05-09T07:55:48.786Z,12.96
2019-05-09T07:56:48.832Z,13.04
2019-05-09T07:57:55.145Z,13.09
2019-05-09T07:58:49.759Z,13.32
2019-05-09T07:59:48.783Z,13.49
2019-05-09T08:00:48.760Z,13.65
2019-05-09T08:01:48.892Z,13.67
2019-05-09T08:02:48.708Z,14.00
2019-05-09T08:03:49.139Z,14.03
2019-05-09T08:04:49.109Z,14.03
2019-05-09T08:05:48.686Z,13.82
2019-05-09T08:06:48.806Z,13.83
2019-05-09T08:07:48.662Z,13.83
2019-05-09T08:08:48.643Z,13.75
2019-05-09T08:09:48.634Z,13.63
2019-05-09T08:10:48.653Z,13.53
2019-05-09T08:11:48.618Z,13.61
2019-05-09T08:12:48.629Z,13.61
2019-05-09T08:13:48.849Z,13.58
2019-05-09T08:15:06.680Z,13.65
2019-05-09T08:15:49.564Z,13.61
2019-05-09T08:16:48.617Z,13.63
2019-05-09T08:17:48.885Z,13.55
2019-05-09T08:18:48.603Z,13.71
2019-05-09T08:19:48.607Z,13.60
2019-05-09T08:20:48.511Z,13.63
2019-05-09T08:21:48.503Z,13.65
2019-05-09T08:22:57.148Z,13.64
2019-05-09T08:23:49.511Z,13.72
2019-05-09T08:24:48.492Z,13.75
2019-05-09T08:25:48.637Z,13.79
2019-05-09T08:26:48.471Z,13.82
2019-05-09T08:27:48.457Z,13.94
2019-05-09T08:28:48.446Z,14.08
2019-05-09T08:29:48.441Z,14.16
2019-05-09T08:30:48.566Z,14.19
2019-05-09T08:31:48.683Z,14.13
2019-05-09T08:32:48.464Z,14.26
2019-05-09T08:33:48.684Z,14.19
2019-05-09T08:34:48.433Z,14.28
2019-05-09T08:35:52.354Z,14.37
2019-05-09T08:36:48.342Z,14.40
2019-05-09T08:37:48.331Z,14.28
2019-05-09T08:38:48.316Z,14.09
2019-05-09T08:39:48.612Z,14.05
2019-05-09T08:40:48.651Z,14.08
2019-05-09T08:41:48.660Z,13.97
2019-05-09T08:42:48.347Z,14.01
2019-05-09T08:43:48.507Z,13.93
2019-05-09T08:44:48.357Z,13.96
2019-05-09T08:45:48.448Z,14.15
2019-05-09T08:46:48.301Z,14.12
2019-05-09T08:47:48.566Z,14.15
2019-05-09T08:48:48.692Z,14.04
2019-05-09T08:49:49.610Z,13.82
2019-05-09T08:50:48.399Z,13.78
2019-05-09T08:52:06.948Z,13.68
2019-05-09T08:52:49.211Z,13.75
2019-05-09T08:53:48.358Z,13.67
2019-05-09T08:54:48.626Z,13.75
2019-05-09T08:55:48.130Z,13.82
2019-05-09T08:56:48.130Z,13.82
2019-05-09T08:57:48.269Z,13.76
2019-05-09T08:58:48.606Z,13.71
2019-05-09T08:59:50.551Z,13.71
2019-05-09T09:00:49.045Z,13.68
2019-05-09T09:02:10.221Z,13.78
2019-05-09T09:02:49.079Z,13.79
2019-05-09T09:03:48.515Z,13.80
2019-05-09T09:04:48.932Z,13.88
2019-05-09T09:05:48.585Z,13.78
2019-05-09T09:06:48.326Z,13.83
2019-05-09T09:07:49.021Z,13.76
2019-05-09T09:08:48.423Z,13.83
2019-05-09T09:09:48.362Z,13.79
2019-05-09T09:10:48.871Z,13.79
2019-05-09T09:11:47.967Z,13.82
2019-05-09T09:12:48.028Z,13.85
2019-05-09T09:13:48.344Z,13.79
2019-05-09T09:14:48.014Z,13.78
2019-05-09T09:16:05.315Z,13.80
2019-05-09T09:16:48.982Z,13.78
2019-05-09T09:17:49.107Z,13.71
2019-05-09T09:18:48.261Z,13.63
2019-05-09T09:19:48.074Z,13.64
2019-05-09T09:20:48.539Z,13.57
2019-05-09T09:21:49.728Z,13.79
2019-05-09T09:22:48.172Z,13.80
2019-05-09T09:23:50.683Z,13.72
2019-05-09T09:24:48.306Z,13.76
2019-05-09T09:25:48.707Z,13.78
2019-05-09T09:26:48.144Z,13.80
2019-05-09T09:27:51.009Z,13.73
2019-05-09T09:28:48.410Z,13.78
2019-05-09T09:29:48.230Z,13.75
2019-05-09T09:30:48.568Z,13.67
2019-05-09T09:31:48.298Z,13.64
2019-05-09T09:32:48.060Z,13.80
2019-05-09T09:33:48.141Z,13.72
2019-05-09T09:34:48.469Z,13.78
2019-05-09T09:35:48.978Z,13.80
2019-05-09T09:36:48.129Z,13.83
2019-05-09T09:37:51.373Z,13.79
2019-05-09T09:38:48.194Z,13.85
2019-05-09T09:39:48.806Z,14.00
2019-05-09T09:40:47.938Z,14.12
2019-05-09T09:41:48.321Z,14.16
2019-05-09T09:42:48.989Z,14.26
2019-05-09T09:43:47.855Z,14.37
2019-05-09T09:44:48.144Z,14.33
2019-05-09T09:45:48.276Z,14.18
2019-05-09T09:46:48.607Z,14.40
2019-05-09T09:47:48.346Z,14.46
2019-05-09T09:48:48.176Z,14.56
2019-05-09T09:49:49.021Z,14.66
2019-05-09T09:50:51.424Z,14.70
2019-05-09T09:51:48.510Z,14.67
2019-05-09T09:52:49.175Z,14.83
2019-05-09T09:53:48.905Z,14.79
2019-05-09T09:54:48.178Z,14.71
2019-05-09T09:55:47.846Z,14.73
2019-05-09T09:56:47.931Z,14.69
2019-05-09T09:57:48.438Z,14.71
2019-05-09T09:58:48.317Z,14.64
2019-05-09T09:59:48.480Z,14.73
2019-05-09T10:00:48.453Z,14.66
2019-05-09T10:01:47.872Z,14.77
2019-05-09T10:02:48.211Z,14.85
2019-05-09T10:03:47.465Z,14.83
2019-05-09T10:04:47.407Z,14.59
2019-05-09T10:05:48.603Z,14.74
2019-05-09T10:06:48.243Z,14.73
2019-05-09T10:07:47.749Z,14.67
2019-05-09T10:08:49.040Z,14.64
2019-05-09T10:09:47.989Z,14.61
2019-05-09T10:10:48.359Z,14.69
2019-05-09T10:11:48.305Z,14.90
2019-05-09T10:12:49.415Z,14.89
2019-05-09T10:13:48.055Z,14.87
2019-05-09T10:14:47.269Z,15.04
2019-05-09T10:15:47.540Z,15.20
2019-05-09T10:16:47.867Z,15.19
2019-05-09T10:17:47.774Z,15.29
2019-05-09T10:18:47.221Z,15.23
2019-05-09T10:19:48.211Z,15.38
2019-05-09T10:20:48.494Z,15.30
2019-05-09T10:21:48.561Z,15.45
2019-05-09T10:22:58.562Z,15.51
2019-05-09T10:23:48.443Z,15.70
2019-05-09T10:24:47.847Z,15.91
2019-05-09T10:25:47.142Z,15.90
2019-05-09T10:26:47.132Z,15.81
2019-05-09T10:27:47.973Z,15.84
2019-05-09T10:28:48.582Z,16.00
2019-05-09T10:29:48.002Z,16.16
2019-05-09T10:30:48.480Z,16.32
2019-05-09T10:31:48.754Z,16.42
2019-05-09T10:32:47.654Z,16.28
2019-05-09T10:33:48.199Z,16.26
2019-05-09T10:34:48.789Z,16.26
2019-05-09T10:35:47.901Z,16.18
2019-05-09T10:36:47.624Z,16.17
2019-05-09T10:37:48.474Z,16.39
2019-05-09T10:38:47.786Z,16.39
2019-05-09T10:39:49.044Z,16.58
2019-05-09T10:40:48.462Z,16.58
2019-05-09T10:41:48.252Z,16.52
2019-05-09T10:42:48.291Z,16.70
2019-05-09T10:43:48.617Z,16.59
2019-05-09T10:44:48.872Z,16.62
2019-05-09T10:45:48.412Z,16.52
2019-05-09T10:46:56.397Z,16.54
2019-05-09T10:47:48.349Z,16.58
2019-05-09T10:48:47.938Z,16.62
2019-05-09T10:49:48.789Z,16.58
2019-05-09T10:50:54.295Z,16.61
2019-05-09T10:51:48.502Z,16.76
2019-05-09T10:52:48.205Z,16.79
2019-05-09T10:53:48.162Z,16.90
2019-05-09T10:54:46.873Z,16.90
2019-05-09T10:55:48.094Z,16.90
2019-05-09T10:56:48.761Z,16.99
2019-05-09T10:57:52.546Z,16.94
2019-05-09T10:58:48.388Z,17.09
2019-05-09T10:59:48.255Z,17.20
2019-05-09T11:00:48.341Z,17.32
2019-05-09T11:01:49.391Z,17.39
2019-05-09T11:02:48.366Z,17.39
2019-05-09T11:03:48.288Z,17.41
2019-05-09T11:04:49.075Z,17.39
2019-05-09T11:05:46.753Z,17.54
2019-05-09T11:06:46.682Z,17.63
2019-05-09T11:07:46.680Z,17.53
2019-05-09T11:08:47.642Z,17.65
2019-05-09T11:09:48.047Z,17.78
2019-05-09T11:10:47.475Z,17.79
2019-05-09T11:11:48.429Z,17.59
2019-05-09T11:12:47.862Z,17.45
2019-05-09T11:13:48.130Z,17.32
2019-05-09T11:14:48.405Z,17.13
2019-05-09T11:15:48.029Z,17.20
2019-05-09T11:16:51.121Z,17.31
2019-05-09T11:17:47.574Z,17.43
2019-05-09T11:18:48.217Z,17.68
2019-05-09T11:19:48.279Z,17.86
2019-05-09T11:20:46.542Z,17.90
2019-05-09T11:21:47.845Z,18.01
2019-05-09T11:22:46.519Z,17.97
2019-05-09T11:23:48.787Z,17.96
2019-05-09T11:24:50.954Z,17.93
2019-05-09T11:25:47.294Z,17.81
2019-05-09T11:26:48.140Z,17.76
2019-05-09T11:27:48.638Z,17.76
2019-05-09T11:28:47.458Z,17.66
2019-05-09T11:29:49.734Z,17.66
2019-05-09T11:30:47.651Z,17.50
2019-05-09T11:31:47.735Z,17.49
2019-05-09T11:32:48.080Z,17.47
2019-05-09T11:33:48.353Z,17.07
2019-05-09T11:34:48.649Z,16.91
2019-05-09T11:35:47.993Z,16.95
2019-05-09T11:36:46.357Z,16.92
2019-05-09T11:37:48.057Z,16.76
2019-05-09T11:38:49.112Z,16.61
2019-05-09T11:39:48.201Z,16.62
2019-05-09T11:40:48.210Z,16.57
2019-05-09T11:41:48.658Z,16.61
2019-05-09T11:42:48.283Z,16.49
2019-05-09T11:43:48.550Z,16.54
2019-05-09T11:44:46.274Z,16.49
2019-05-09T11:45:47.876Z,16.58
2019-05-09T11:46:47.741Z,16.58
2019-05-09T11:47:46.765Z,16.47
2019-05-09T11:48:46.232Z,16.49
2019-05-09T11:49:48.065Z,16.49
2019-05-09T11:50:47.710Z,16.57
2019-05-09T11:51:48.260Z,16.72
2019-05-09T11:52:48.923Z,16.69
2019-05-09T11:53:48.657Z,16.69
2019-05-09T11:54:48.215Z,16.77
2019-05-09T11:55:48.152Z,16.64
2019-05-09T11:56:48.143Z,16.62
2019-05-09T11:57:48.587Z,16.70
2019-05-09T11:58:48.191Z,16.87
2019-05-09T11:59:48.033Z,17.01
2019-05-09T12:00:48.114Z,16.87
2019-05-09T12:01:48.255Z,16.88
2019-05-09T12:02:46.068Z,16.90
2019-05-09T12:03:49.930Z,17.02
2019-05-09T12:04:48.692Z,17.02
2019-05-09T12:05:47.595Z,17.22
2019-05-09T12:06:46.023Z,17.17
2019-05-09T12:07:46.010Z,17.24
2019-05-09T12:08:48.322Z,17.37
2019-05-09T12:09:48.656Z,17.39
2019-05-09T12:10:45.985Z,17.43
2019-05-09T12:11:48.311Z,17.28
2019-05-09T12:12:47.798Z,17.39
2019-05-09T12:13:48.444Z,17.34
2019-05-09T12:14:48.224Z,17.37
2019-05-09T12:15:48.733Z,17.35
2019-05-09T12:16:47.998Z,17.49
2019-05-09T12:17:56.578Z,17.54
2019-05-09T12:18:48.767Z,17.68
2019-05-09T12:19:45.878Z,17.59
2019-05-09T12:20:48.273Z,17.54
2019-05-09T12:21:48.086Z,17.49
2019-05-09T12:22:48.323Z,17.34
2019-05-09T12:23:48.027Z,17.41
2019-05-09T12:24:47.987Z,17.37
2019-05-09T12:25:45.812Z,17.25
2019-05-09T12:26:48.183Z,17.19
2019-05-09T12:27:48.515Z,17.19
2019-05-09T12:28:48.410Z,17.16
2019-05-09T12:29:48.214Z,17.09
2019-05-09T12:30:45.759Z,17.10
2019-05-09T12:31:48.289Z,17.07
2019-05-09T12:32:45.736Z,16.99
2019-05-09T12:33:48.330Z,16.95
2019-05-09T12:34:47.837Z,16.97
2019-05-09T12:35:47.756Z,16.94
2019-05-09T12:36:49.086Z,16.92
2019-05-09T12:37:45.678Z,16.94
2019-05-09T12:38:49.365Z,17.01
2019-05-09T12:39:48.035Z,16.72
2019-05-09T12:40:48.077Z,16.59
2019-05-09T12:41:48.211Z,16.58
2019-05-09T12:42:45.668Z,16.57
2019-05-09T12:43:45.620Z,16.52
2019-05-09T12:44:45.604Z,16.40
2019-05-09T12:45:47.837Z,16.40
2019-05-09T12:46:45.584Z,16.32
2019-05-09T12:47:45.597Z,16.26
2019-05-09T12:48:47.963Z,16.14
2019-05-09T12:49:45.552Z,16.06
2019-05-09T12:50:45.544Z,16.00
2019-05-09T12:51:45.572Z,15.85
2019-05-09T12:52:45.521Z,15.73
2019-05-09T12:53:48.172Z,15.62
2019-05-09T12:54:48.163Z,15.44
2019-05-09T12:55:47.543Z,15.41
2019-05-09T12:56:45.493Z,15.43
2019-05-09T12:57:45.510Z,15.35
2019-05-09T12:58:47.588Z,15.36
2019-05-09T12:59:49.828Z,15.15
2019-05-09T13:00:49.235Z,15.40
2019-05-09T13:01:48.853Z,15.27
2019-05-09T13:02:45.418Z,15.20
2019-05-09T13:03:45.497Z,15.33